createdAt,value
2019-02-12T00:01:29.562Z,5.07
2019-02-12T00:04:01.478Z,5.05
2019-02-12T00:06:33.405Z,5.07
2019-02-12T00:09:07.924Z,5.10
2019-02-12T00:11:39.849Z,5.10
2019-02-12T00:14:11.786Z,5.09
2019-02-12T00:16:43.700Z,5.01
2019-02-12T00:19:15.626Z,5.02
2019-02-12T00:21:47.571Z,5.04
2019-02-12T00:24:19.562Z,5.02
2019-02-12T00:26:51.550Z,5.00
2019-02-12T00:29:23.462Z,5.00
2019-02-12T00:31:55.396Z,5.03
2019-02-12T00:34:27.318Z,5.05
2019-02-12T00:36:59.312Z,5.06
2019-02-12T00:39:31.249Z,5.07
2019-02-12T00:42:03.159Z,5.05
2019-02-12T00:44:35.078Z,5.05
2019-02-12T00:47:07.309Z,5.04
2019-02-12T00:49:39.566Z,5.07
2019-02-12T00:52:11.557Z,5.05
2019-02-12T00:54:43.559Z,5.01
2019-02-12T00:57:15.497Z,5.00
2019-02-12T00:59:47.425Z,4.99
2019-02-12T01:02:19.555Z,4.99
2019-02-12T01:04:51.557Z,5.01
2019-02-12T01:07:23.545Z,5.02
2019-02-12T01:09:55.487Z,5.01
2019-02-12T01:12:27.398Z,5.01
2019-02-12T01:14:59.412Z,4.99
2019-02-12T01:17:31.321Z,5.00
2019-02-12T01:20:03.618Z,4.99
2019-02-12T01:22:35.542Z,4.97
2019-02-12T01:25:09.106Z,4.95
2019-02-12T01:27:41.011Z,4.97
2019-02-12T01:30:16.953Z,4.97
2019-02-12T01:32:50.008Z,4.99
2019-02-12T01:35:21.933Z,4.97
2019-02-12T01:37:53.900Z,4.97
2019-02-12T01:40:26.094Z,4.99
2019-02-12T01:42:58.285Z,4.95
2019-02-12T01:45:30.351Z,4.95
2019-02-12T01:48:02.275Z,4.96
2019-02-12T01:50:34.389Z,4.95
2019-02-12T01:53:06.466Z,4.96
2019-02-12T01:55:38.915Z,4.96
2019-02-12T01:58:10.920Z,4.95
2019-02-12T02:00:42.837Z,4.96
2019-02-12T02:03:14.757Z,4.95
2019-02-12T02:05:47.119Z,4.96
2019-02-12T02:08:22.052Z,4.97
2019-02-12T02:10:53.966Z,4.96
2019-02-12T02:13:25.904Z,4.95
2019-02-12T02:15:57.836Z,4.96
2019-02-12T02:18:29.770Z,4.94
2019-02-12T02:21:01.704Z,4.94
2019-02-12T02:23:33.637Z,4.92
2019-02-12T02:26:05.564Z,4.92
2019-02-12T02:28:37.498Z,4.90
2019-02-12T02:31:09.694Z,4.90
2019-02-12T02:33:42.074Z,4.89
2019-02-12T02:36:14.023Z,4.90
2019-02-12T02:38:45.975Z,4.91
2019-02-12T02:41:17.912Z,4.92
2019-02-12T02:43:49.841Z,4.91
2019-02-12T02:46:21.808Z,4.89
2019-02-12T02:48:53.770Z,4.92
2019-02-12T02:51:25.781Z,4.91
2019-02-12T02:53:57.755Z,4.92
2019-02-12T02:56:29.668Z,4.94
2019-02-12T02:59:01.610Z,4.96
2019-02-12T03:01:33.526Z,4.96
2019-02-12T03:04:05.482Z,5.00
2019-02-12T03:06:37.628Z,5.03
2019-02-12T03:09:09.630Z,5.01
2019-02-12T03:11:41.559Z,4.99
2019-02-12T03:14:13.476Z,4.99
2019-02-12T03:16:45.411Z,5.00
2019-02-12T03:19:17.591Z,5.00
2019-02-12T03:21:49.518Z,5.00
2019-02-12T03:24:21.519Z,4.97
2019-02-12T03:26:53.449Z,4.97
2019-02-12T03:29:25.374Z,4.98
2019-02-12T03:31:57.882Z,4.96
2019-02-12T03:34:30.108Z,4.94
2019-02-12T03:37:02.048Z,4.94
2019-02-12T03:39:33.984Z,4.93
2019-02-12T03:42:06.206Z,4.93
2019-02-12T03:44:38.126Z,4.94
2019-02-12T03:47:10.091Z,4.94
2019-02-12T03:49:42.026Z,4.92
2019-02-12T03:52:13.964Z,4.92
2019-02-12T03:54:45.880Z,4.93
2019-02-12T03:57:17.851Z,4.89
2019-02-12T03:59:50.534Z,4.88
2019-02-12T04:02:22.458Z,4.87
2019-02-12T04:04:54.464Z,4.86
2019-02-12T04:07:26.433Z,4.87
2019-02-12T04:09:58.349Z,4.87
2019-02-12T04:12:30.286Z,4.86
2019-02-12T04:15:02.200Z,4.86
2019-02-12T04:17:34.137Z,4.84
2019-02-12T04:20:06.825Z,4.80
2019-02-12T04:22:38.756Z,4.79
2019-02-12T04:25:10.747Z,4.78
2019-02-12T04:27:42.705Z,4.78
2019-02-12T04:30:14.635Z,4.78
2019-02-12T04:32:46.584Z,4.80
2019-02-12T04:35:18.539Z,4.79
2019-02-12T04:37:50.482Z,4.80
2019-02-12T04:40:22.414Z,4.79
2019-02-12T04:42:55.150Z,4.77
2019-02-12T04:45:27.069Z,4.76
2019-02-12T04:47:59.035Z,4.75
2019-02-12T04:50:31.374Z,4.74
2019-02-12T04:53:03.302Z,4.73
2019-02-12T04:55:35.228Z,4.73
2019-02-12T04:58:07.148Z,4.75
2019-02-12T05:00:39.258Z,4.75
2019-02-12T05:03:11.756Z,4.73
2019-02-12T05:05:44.487Z,4.72
2019-02-12T05:08:16.424Z,4.71
2019-02-12T05:11:04.380Z,4.71
2019-02-12T05:13:36.868Z,4.71
2019-02-12T05:16:08.830Z,4.71
2019-02-12T05:18:41.030Z,4.70
2019-02-12T05:21:12.941Z,4.69
2019-02-12T05:23:45.054Z,4.69
2019-02-12T05:26:17.157Z,4.69
2019-02-12T05:28:49.151Z,4.67
2019-02-12T05:31:21.442Z,4.65
2019-02-12T05:33:53.921Z,4.64
2019-02-12T05:36:26.451Z,4.62
2019-02-12T05:38:59.172Z,4.61
2019-02-12T05:41:31.086Z,4.60
2019-02-12T05:44:03.119Z,4.60
2019-02-12T05:46:35.231Z,4.60
2019-02-12T05:49:07.608Z,4.60
2019-02-12T05:51:39.553Z,4.61
2019-02-12T05:54:11.991Z,4.61
2019-02-12T05:56:43.990Z,4.61
2019-02-12T05:59:15.928Z,4.63
2019-02-12T06:01:48.026Z,4.63
2019-02-12T06:04:19.953Z,4.62
2019-02-12T06:06:51.895Z,4.62
2019-02-12T06:09:23.803Z,4.63
2019-02-12T06:11:55.761Z,4.61
2019-02-12T06:14:28.104Z,4.61
2019-02-12T06:17:00.065Z,4.62
2019-02-12T06:19:31.975Z,4.63
2019-02-12T06:22:03.907Z,4.65
2019-02-12T06:24:35.843Z,4.65
2019-02-12T06:27:07.763Z,4.65
2019-02-12T06:29:39.696Z,4.64
2019-02-12T06:32:11.633Z,4.63
2019-02-12T06:34:44.019Z,4.64
2019-02-12T06:37:16.017Z,4.63
2019-02-12T06:39:47.997Z,4.60
2019-02-12T06:42:19.912Z,4.62
2019-02-12T06:44:51.843Z,4.63
2019-02-12T06:47:23.766Z,4.62
2019-02-12T06:49:55.695Z,4.62
2019-02-12T06:52:27.612Z,4.61
2019-02-12T06:54:59.548Z,4.61
2019-02-12T06:57:31.457Z,4.59
2019-02-12T07:00:03.857Z,4.57
2019-02-12T07:03:17.125Z,4.53
2019-02-12T07:06:02.669Z,4.52
2019-02-12T07:09:04.591Z,4.50
2019-02-12T07:11:46.317Z,4.49
2019-02-12T07:14:40.724Z,4.48
2019-02-12T07:17:26.044Z,4.42
2019-02-12T07:20:43.648Z,4.41
2019-02-12T07:23:43.037Z,4.43
2019-02-12T07:26:34.400Z,4.43
2019-02-12T07:29:57.187Z,4.43
2019-02-12T07:32:54.368Z,4.45
2019-02-12T07:36:05.350Z,4.46
2019-02-12T07:38:47.468Z,4.50
2019-02-12T07:41:24.015Z,4.53
2019-02-12T07:44:03.130Z,4.55
2019-02-12T07:46:57.281Z,4.55
2019-02-12T07:49:42.683Z,4.56
2019-02-12T07:52:37.064Z,4.57
2019-02-12T07:55:20.919Z,4.59
2019-02-12T07:58:12.766Z,4.60
2019-02-12T08:00:57.280Z,4.61
2019-02-12T08:04:00.369Z,4.64
2019-02-12T08:06:48.447Z,4.67
2019-02-12T08:10:02.184Z,4.69
2019-02-12T08:12:59.390Z,4.68
2019-02-12T08:15:56.696Z,4.70
2019-02-12T08:18:50.411Z,4.72
2019-02-12T08:21:49.393Z,4.72
2019-02-12T08:24:34.327Z,4.71
2019-02-12T08:27:19.796Z,4.74
2019-02-12T08:30:15.580Z,4.77
2019-02-12T08:33:15.225Z,4.79
2019-02-12T08:35:57.287Z,4.80
2019-02-12T08:38:39.488Z,4.52
2019-02-12T08:41:21.843Z,4.75
2019-02-12T08:44:06.997Z,4.81
2019-02-12T08:47:14.866Z,4.86
2019-02-12T08:50:03.087Z,4.81
2019-02-12T08:53:08.634Z,4.78
2019-02-12T08:55:59.983Z,4.81
2019-02-12T08:58:45.496Z,4.88
2019-02-12T09:01:37.089Z,4.90
2019-02-12T09:04:35.975Z,4.88
2019-02-12T09:07:18.318Z,4.88
2019-02-12T09:10:09.640Z,4.89
2019-02-12T09:13:02.825Z,4.93
2019-02-12T09:15:57.269Z,4.99
2019-02-12T09:19:10.942Z,5.07
2019-02-12T09:21:56.399Z,5.15
2019-02-12T09:24:38.558Z,5.17
2019-02-12T09:27:23.672Z,5.15
2019-02-12T09:30:17.941Z,5.17
2019-02-12T09:33:23.208Z,5.18
2019-02-12T09:36:35.921Z,5.25
2019-02-12T09:39:36.228Z,5.31
2019-02-12T09:42:24.888Z,5.32
2019-02-12T09:45:07.505Z,5.33
2019-02-12T09:47:49.776Z,5.34
2019-02-12T09:50:35.028Z,5.34
2019-02-12T09:53:46.266Z,5.34
2019-02-12T09:56:34.635Z,5.37
2019-02-12T09:59:39.325Z,5.36
2019-02-12T10:02:41.495Z,5.38
2019-02-12T10:05:21.177Z,5.36
2019-02-12T10:08:18.994Z,5.38
2019-02-12T10:11:13.305Z,5.46
2019-02-12T10:14:26.308Z,5.49
2019-02-12T10:17:17.415Z,5.53
2019-02-12T10:19:53.941Z,5.57
2019-02-12T10:22:44.994Z,5.57
2019-02-12T10:25:23.467Z,5.55
2019-02-12T10:28:20.915Z,5.53
2019-02-12T10:31:09.033Z,5.56
2019-02-12T10:33:40.955Z,5.58
2019-02-12T10:36:13.000Z,5.57
2019-02-12T10:38:44.964Z,5.58
2019-02-12T10:41:16.850Z,5.62
2019-02-12T10:43:48.787Z,5.56
2019-02-12T10:46:20.743Z,5.53
2019-02-12T10:48:52.823Z,5.57
2019-02-12T10:51:24.785Z,5.56
2019-02-12T10:53:57.053Z,5.53
2019-02-12T10:56:29.018Z,5.51
2019-02-12T10:59:00.964Z,5.56
2019-02-12T11:01:32.894Z,5.59
2019-02-12T11:04:05.041Z,5.64
2019-02-12T11:06:37.040Z,5.70
2019-02-12T11:09:11.188Z,5.73
2019-02-12T11:11:43.136Z,5.74
2019-02-12T11:14:15.057Z,5.79
2019-02-12T11:16:47.044Z,5.83
2019-02-12T11:19:19.033Z,5.88
2019-02-12T11:21:51.029Z,5.91
2019-02-12T11:24:22.963Z,5.89
2019-02-12T11:26:55.177Z,5.88
2019-02-12T11:29:27.091Z,5.56
2019-02-12T11:31:59.321Z,5.86
2019-02-12T11:34:31.261Z,5.90
2019-02-12T11:37:03.324Z,5.93
2019-02-12T11:39:35.282Z,5.98
2019-02-12T11:42:07.281Z,6.01
2019-02-12T11:44:39.238Z,6.04
2019-02-12T11:47:11.212Z,6.06
2019-02-12T11:49:43.144Z,6.07
2019-02-12T11:52:15.098Z,6.06
2019-02-12T11:54:47.014Z,6.08
2019-02-12T11:57:18.977Z,6.08
2019-02-12T11:59:52.347Z,6.09
2019-02-12T12:02:26.050Z,6.10
2019-02-12T12:05:00.292Z,6.14
2019-02-12T12:07:32.357Z,6.14
2019-02-12T12:10:05.619Z,5.92
2019-02-12T12:12:37.569Z,6.18
2019-02-12T12:15:14.262Z,6.18
2019-02-12T12:17:46.447Z,6.18
2019-02-12T12:20:18.422Z,6.22
2019-02-12T12:22:50.547Z,6.27
2019-02-12T12:25:22.455Z,6.28
2019-02-12T12:27:54.697Z,6.28
2019-02-12T12:30:26.736Z,6.29
2019-02-12T12:32:58.700Z,6.30
2019-02-12T12:35:30.644Z,6.29
2019-02-12T12:38:02.569Z,6.25
2019-02-12T12:40:34.565Z,5.93
2019-02-12T12:43:06.512Z,6.23
2019-02-12T12:45:38.592Z,6.24
2019-02-12T12:48:10.664Z,6.22
2019-02-12T12:50:42.679Z,6.22
2019-02-12T12:53:14.938Z,6.22
2019-02-12T12:55:46.980Z,6.21
2019-02-12T12:58:18.977Z,6.22
2019-02-12T13:00:50.937Z,6.24
2019-02-12T13:03:22.981Z,6.13
2019-02-12T13:05:54.985Z,6.23
2019-02-12T13:08:27.212Z,6.17
2019-02-12T13:10:59.139Z,6.15
2019-02-12T13:13:31.120Z,6.15
2019-02-12T13:16:03.470Z,6.16
2019-02-12T13:18:35.544Z,6.15
2019-02-12T13:21:11.819Z,6.16
2019-02-12T13:23:43.851Z,6.21
2019-02-12T13:26:15.970Z,6.20
2019-02-12T13:28:47.998Z,6.18
2019-02-12T13:31:23.104Z,6.16
2019-02-12T13:33:55.409Z,6.14
2019-02-12T13:36:27.385Z,6.14
2019-02-12T13:39:01.915Z,6.17
2019-02-12T13:41:33.821Z,6.19
2019-02-12T13:44:05.908Z,6.21
2019-02-12T13:46:37.784Z,6.23
2019-02-12T13:49:09.753Z,6.19
2019-02-12T13:51:41.715Z,6.19
2019-02-12T13:54:13.860Z,6.21
2019-02-12T13:56:45.899Z,6.17
2019-02-12T13:59:17.768Z,6.12
2019-02-12T14:01:49.710Z,6.10
2019-02-12T14:04:21.767Z,6.06
2019-02-12T14:06:53.695Z,6.04
2019-02-12T14:09:25.620Z,6.04
2019-02-12T14:11:57.674Z,6.04
2019-02-12T14:14:29.595Z,6.01
2019-02-12T14:17:01.588Z,6.02
2019-02-12T14:19:33.506Z,6.00
2019-02-12T14:22:05.919Z,6.02
2019-02-12T14:24:39.734Z,6.01
2019-02-12T14:27:11.692Z,5.98
2019-02-12T14:29:43.578Z,5.99
2019-02-12T14:32:15.855Z,6.00
2019-02-12T14:34:49.195Z,6.01
2019-02-12T14:37:21.139Z,6.02
2019-02-12T14:39:53.067Z,6.01
2019-02-12T14:42:24.975Z,5.99
2019-02-12T14:44:56.934Z,6.00
2019-02-12T14:47:29.629Z,5.99
2019-02-12T14:50:03.213Z,5.92
2019-02-12T14:52:36.487Z,5.90
2019-02-12T14:55:09.086Z,5.88
2019-02-12T14:57:41.115Z,5.87
2019-02-12T15:00:20.749Z,5.83
2019-02-12T15:02:52.728Z,5.82
2019-02-12T15:05:24.624Z,5.82
2019-02-12T15:07:56.938Z,5.82
2019-02-12T15:10:29.014Z,5.79
2019-02-12T15:13:01.126Z,5.78
2019-02-12T15:15:33.055Z,5.78
2019-02-12T15:18:05.071Z,5.78
2019-02-12T15:20:37.172Z,5.77
2019-02-12T15:23:09.322Z,5.79
2019-02-12T15:25:42.203Z,5.78
2019-02-12T15:28:14.164Z,5.82
2019-02-12T15:30:46.215Z,5.80
2019-02-12T15:33:18.261Z,5.82
2019-02-12T15:35:50.242Z,5.81
2019-02-12T15:38:23.189Z,5.80
2019-02-12T15:40:55.126Z,5.77
2019-02-12T15:43:27.399Z,5.73
2019-02-12T15:46:00.946Z,5.71
2019-02-12T15:48:33.645Z,5.71
2019-02-12T15:51:05.732Z,5.70
2019-02-12T15:53:38.122Z,5.68
2019-02-12T15:56:10.427Z,5.66
2019-02-12T15:58:51.695Z,5.66
2019-02-12T16:01:26.209Z,5.64
2019-02-12T16:03:59.810Z,5.61
2019-02-12T16:06:31.940Z,5.60
2019-02-12T16:09:05.351Z,5.57
2019-02-12T16:11:37.282Z,5.54
2019-02-12T16:14:10.634Z,5.52
2019-02-12T16:16:42.597Z,5.49
2019-02-12T16:19:14.641Z,5.48
2019-02-12T16:21:46.556Z,5.45
2019-02-12T16:24:18.812Z,5.45
2019-02-12T16:26:50.817Z,5.43
2019-02-12T16:29:22.737Z,5.42
2019-02-12T16:31:55.077Z,5.42
2019-02-12T16:34:28.575Z,5.41
2019-02-12T16:37:00.947Z,5.40
2019-02-12T16:39:32.975Z,5.40
2019-02-12T16:42:04.883Z,5.40
2019-02-12T16:44:37.395Z,5.40
2019-02-12T16:47:10.202Z,5.39
2019-02-12T16:49:42.115Z,5.40
2019-02-12T16:52:20.624Z,5.41
2019-02-12T16:54:47.967Z,5.41
2019-02-12T16:57:20.262Z,5.42
2019-02-12T16:59:52.529Z,5.44
2019-02-12T17:02:24.481Z,5.46
2019-02-12T17:04:56.395Z,5.47
2019-02-12T17:07:28.386Z,5.48
2019-02-12T17:10:00.348Z,5.48
2019-02-12T17:12:32.355Z,5.48
2019-02-12T17:15:05.392Z,5.49
2019-02-12T17:17:37.728Z,5.51
2019-02-12T17:20:19.365Z,5.51
2019-02-12T17:22:51.584Z,5.52
2019-02-12T17:25:23.492Z,5.51
2019-02-12T17:27:55.438Z,5.52
2019-02-12T17:30:27.749Z,5.51
2019-02-12T17:33:00.023Z,5.51
2019-02-12T17:35:31.972Z,5.50
2019-02-12T17:38:03.966Z,5.51
2019-02-12T17:40:35.891Z,5.52
2019-02-12T17:43:07.826Z,5.55
2019-02-12T17:45:39.911Z,5.58
2019-02-12T17:48:12.038Z,5.59
2019-02-12T17:50:44.017Z,5.62
2019-02-12T17:53:17.266Z,5.64
2019-02-12T17:55:49.863Z,5.68
2019-02-12T17:58:21.762Z,5.69
2019-02-12T18:00:53.689Z,5.72
2019-02-12T18:03:25.603Z,5.75
2019-02-12T18:05:57.526Z,5.77
2019-02-12T18:08:29.458Z,5.80
2019-02-12T18:11:18.753Z,5.82
2019-02-12T18:13:50.713Z,5.83
2019-02-12T18:16:22.703Z,5.87
2019-02-12T18:18:54.645Z,5.88
2019-02-12T18:21:26.559Z,5.88
2019-02-12T18:23:58.555Z,5.89
2019-02-12T18:26:33.262Z,5.92
2019-02-12T18:29:05.144Z,5.92
2019-02-12T18:31:37.150Z,5.94
2019-02-12T18:34:09.069Z,5.96
2019-02-12T18:36:41.373Z,5.97
2019-02-12T18:39:13.322Z,6.00
2019-02-12T18:41:45.289Z,6.01
2019-02-12T18:44:17.201Z,6.01
2019-02-12T18:46:49.143Z,6.02
2019-02-12T18:49:21.122Z,6.03
2019-02-12T18:51:53.154Z,6.06
2019-02-12T18:54:25.091Z,6.07
2019-02-12T18:56:57.352Z,6.07
2019-02-12T18:59:29.292Z,6.06
2019-02-12T19:02:01.207Z,6.07
2019-02-12T19:04:33.156Z,6.07
2019-02-12T19:07:05.069Z,6.07
2019-02-12T19:09:37.781Z,6.07
2019-02-12T19:12:09.705Z,6.07
2019-02-12T19:14:41.738Z,6.07
2019-02-12T19:17:13.677Z,6.08
2019-02-12T19:19:45.601Z,6.10
2019-02-12T19:22:17.523Z,6.12
2019-02-12T19:24:49.908Z,6.13
2019-02-12T19:27:21.839Z,6.14
2019-02-12T19:29:53.769Z,6.15
2019-02-12T19:32:25.711Z,6.16
2019-02-12T19:34:57.630Z,6.17
2019-02-12T19:37:29.551Z,6.18
2019-02-12T19:40:01.463Z,6.18
2019-02-12T19:42:33.396Z,6.20
2019-02-12T19:45:13.695Z,6.19
2019-02-12T19:47:45.787Z,6.21
2019-02-12T19:50:17.708Z,6.21
2019-02-12T19:52:49.692Z,6.22
2019-02-12T19:55:21.627Z,6.22
2019-02-12T19:57:53.547Z,6.22
2019-02-12T20:00:25.789Z,6.21
2019-02-12T20:02:58.142Z,6.18
2019-02-12T20:05:30.055Z,6.17
2019-02-12T20:08:01.974Z,6.15
2019-02-12T20:10:33.902Z,6.13
2019-02-12T20:13:05.855Z,6.12
2019-02-12T20:15:37.837Z,6.10
2019-02-12T20:18:09.788Z,6.10
2019-02-12T20:20:41.698Z,6.10
2019-02-12T20:23:13.673Z,6.10
2019-02-12T20:25:45.640Z,6.10
2019-02-12T20:28:17.551Z,6.11
2019-02-12T20:30:49.557Z,6.10
2019-02-12T20:33:21.937Z,6.10
2019-02-12T20:35:54.959Z,6.12
2019-02-12T20:38:27.724Z,6.13
2019-02-12T20:40:59.652Z,6.12
2019-02-12T20:43:31.594Z,6.12
2019-02-12T20:46:03.549Z,6.12
2019-02-12T20:48:35.469Z,6.12
2019-02-12T20:51:07.394Z,6.13
2019-02-12T20:53:39.309Z,6.13
2019-02-12T20:56:11.621Z,6.15
2019-02-12T20:58:44.575Z,6.16
2019-02-12T21:01:16.510Z,6.17
2019-02-12T21:03:48.431Z,6.18
2019-02-12T21:06:20.391Z,6.21
2019-02-12T21:08:52.306Z,6.23
2019-02-12T21:11:24.254Z,6.26
2019-02-12T21:13:56.596Z,6.27
2019-02-12T21:16:28.548Z,6.29
2019-02-12T21:19:00.567Z,6.30
2019-02-12T21:21:32.522Z,6.34
2019-02-12T21:24:04.446Z,6.35
2019-02-12T21:26:36.830Z,6.38
2019-02-12T21:29:08.824Z,6.40
2019-02-12T21:31:40.745Z,6.41
2019-02-12T21:34:13.456Z,6.41
2019-02-12T21:36:45.739Z,6.43
2019-02-12T21:39:19.329Z,6.44
2019-02-12T21:41:51.297Z,6.45
2019-02-12T21:44:23.179Z,6.47
2019-02-12T21:46:55.095Z,6.47
2019-02-12T21:49:27.368Z,6.47
2019-02-12T21:51:59.273Z,6.50
2019-02-12T21:54:31.222Z,6.52
2019-02-12T21:57:03.171Z,6.53
2019-02-12T21:59:35.428Z,6.55
2019-02-12T22:02:07.449Z,6.56
2019-02-12T22:04:39.358Z,6.58
2019-02-12T22:07:11.300Z,6.60
2019-02-12T22:09:43.321Z,6.61
2019-02-12T22:12:15.617Z,6.62
2019-02-12T22:14:47.531Z,6.65
2019-02-12T22:17:19.467Z,6.67
2019-02-12T22:19:51.398Z,6.70
2019-02-12T22:22:23.326Z,6.71
2019-02-12T22:24:55.261Z,6.74
2019-02-12T22:27:27.234Z,6.76
2019-02-12T22:29:59.538Z,6.79
2019-02-12T22:32:31.459Z,6.81
2019-02-12T22:35:03.742Z,6.83
2019-02-12T22:37:36.317Z,6.87
2019-02-12T22:40:11.994Z,6.87
2019-02-12T22:42:44.010Z,6.89
2019-02-12T22:45:26.235Z,6.91
2019-02-12T22:47:58.554Z,6.92
2019-02-12T22:50:30.487Z,6.93
2019-02-12T22:53:02.423Z,6.94
2019-02-12T22:55:34.422Z,6.95
2019-02-12T22:58:06.367Z,6.96
2019-02-12T23:00:50.234Z,6.96
2019-02-12T23:03:22.622Z,6.97
2019-02-12T23:05:54.568Z,6.99
2019-02-12T23:08:26.625Z,7.00
2019-02-12T23:10:58.574Z,7.01
2019-02-12T23:13:30.849Z,7.00
2019-02-12T23:16:03.316Z,7.00
2019-02-12T23:18:35.243Z,7.00
2019-02-12T23:21:07.279Z,6.97
2019-02-12T23:23:39.518Z,6.95
2019-02-12T23:26:11.451Z,6.95
2019-02-12T23:28:43.407Z,6.94
2019-02-12T23:31:15.329Z,6.93
2019-02-12T23:33:47.540Z,6.94
2019-02-12T23:36:19.458Z,6.95
2019-02-12T23:38:51.474Z,6.96
2019-02-12T23:41:23.402Z,6.97
2019-02-12T23:43:55.405Z,7.00
2019-02-12T23:46:27.605Z,7.02
2019-02-12T23:48:59.620Z,7.04
2019-02-12T23:51:31.959Z,7.05
2019-02-12T23:54:03.888Z,7.08
2019-02-12T23:56:35.993Z,7.10
2019-02-12T23:59:07.911Z,7.12
